Terminal Aerodrome Forecast
Issued by NWS Memphis, TN

Home | Current Version | Previous Version | Text Only | Print | Product List | Glossary On
Versions: 1 2 3 4 5 6 7 8 9 10 11 12 13 14 15 16 17 18 19 20 21 22 23 24 25
638
FTUS44 KMEG 292109 AAA
TAFMEM
TAF AMD
KMEM 292109Z 2921/3018 18020G30KT P6SM SCT035 BKN060
     FM300100 17017G27KT P6SM SCT050 WS020/20060KT
     FM300800 17017G27KT P6SM BKN025 BKN250 WS020/20060KT
     FM301400 18018G28KT P6SM VCTS BKN035CB
      TEMPO 3015/3018 3SM TSRA BKN015CB=

USA.gov is the U.S. government's official web portal to all federal, state and local government web resources and services.